sensor_id;sensor_type;location;lat;lon;timestamp;P1;durP1;ratioP1;P2;durP2;ratioP2
20229;SDS011;12195;55.790;37.572;2023-06-22T00:00:02;14.03;;;4.67;;
20229;SDS011;12195;55.790;37.572;2023-06-22T00:02:39;19.20;;;5.25;;
20229;SDS011;12195;55.790;37.572;2023-06-22T00:05:21;16.77;;;4.33;;
20229;SDS011;12195;55.790;37.572;2023-06-22T00:07:54;21.05;;;4.47;;
20229;SDS011;12195;55.790;37.572;2023-06-22T00:10:36;15.10;;;4.80;;
20229;SDS011;12195;55.790;37.572;2023-06-22T00:13:19;12.07;;;4.33;;
20229;SDS011;12195;55.790;37.572;2023-06-22T00:15:51;14.03;;;4.60;;
20229;SDS011;12195;55.790;37.572;2023-06-22T00:18:34;15.38;;;4.70;;
20229;SDS011;12195;55.790;37.572;2023-06-22T00:21:06;10.38;;;4.15;;
20229;SDS011;12195;55.790;37.572;2023-06-22T00:23:52;14.47;;;4.62;;
20229;SDS011;12195;55.790;37.572;2023-06-22T00:26:24;13.43;;;4.25;;
20229;SDS011;12195;55.790;37.572;2023-06-22T00:28:58;15.43;;;4.33;;
20229;SDS011;12195;55.790;37.572;2023-06-22T00:31:42;11.68;;;4.12;;
20229;SDS011;12195;55.790;37.572;2023-06-22T00:36:48;13.83;;;5.28;;
20229;SDS011;12195;55.790;37.572;2023-06-22T00:39:32;22.60;;;5.47;;
20229;SDS011;12195;55.790;37.572;2023-06-22T00:42:05;16.12;;;4.47;;
20229;SDS011;12195;55.790;37.572;2023-06-22T00:44:49;18.32;;;5.25;;
20229;SDS011;12195;55.790;37.572;2023-06-22T00:47:35;14.80;;;4.50;;
20229;SDS011;12195;55.790;37.572;2023-06-22T00:50:21;14.28;;;4.70;;
20229;SDS011;12195;55.790;37.572;2023-06-22T00:53:06;12.10;;;4.40;;
20229;SDS011;12195;55.790;37.572;2023-06-22T00:55:41;20.65;;;5.20;;
20229;SDS011;12195;55.790;37.572;2023-06-22T00:58:26;14.98;;;4.20;;
20229;SDS011;12195;55.790;37.572;2023-06-22T01:00:59;14.65;;;4.97;;
20229;SDS011;12195;55.790;37.572;2023-06-22T01:03:42;21.73;;;5.15;;
20229;SDS011;12195;55.790;37.572;2023-06-22T01:06:30;15.63;;;4.60;;
20229;SDS011;12195;55.790;37.572;2023-06-22T01:09:10;13.72;;;4.20;;
20229;SDS011;12195;55.790;37.572;2023-06-22T01:11:56;16.85;;;4.60;;
20229;SDS011;12195;55.790;37.572;2023-06-22T01:14:43;17.95;;;4.67;;
20229;SDS011;12195;55.790;37.572;2023-06-22T01:17:30;12.50;;;4.50;;
20229;SDS011;12195;55.790;37.572;2023-06-22T01:20:04;23.65;;;5.12;;
20229;SDS011;12195;55.790;37.572;2023-06-22T01:22:59;11.15;;;4.30;;
20229;SDS011;12195;55.790;37.572;2023-06-22T01:28:48;18.65;;;4.78;;
20229;SDS011;12195;55.790;37.572;2023-06-22T01:31:24;13.13;;;4.87;;
20229;SDS011;12195;55.790;37.572;2023-06-22T01:34:09;11.25;;;3.83;;
20229;SDS011;12195;55.790;37.572;2023-06-22T01:36:44;9.58;;;3.25;;
20229;SDS011;12195;55.790;37.572;2023-06-22T01:39:29;10.70;;;3.50;;
20229;SDS011;12195;55.790;37.572;2023-06-22T01:42:02;10.95;;;3.92;;
20229;SDS011;12195;55.790;37.572;2023-06-22T01:44:46;11.15;;;3.72;;
20229;SDS011;12195;55.790;37.572;2023-06-22T01:47:20;13.25;;;3.50;;
20229;SDS011;12195;55.790;37.572;2023-06-22T01:50:05;11.18;;;3.60;;
20229;SDS011;12195;55.790;37.572;2023-06-22T01:52:38;7.17;;;3.30;;
20229;SDS011;12195;55.790;37.572;2023-06-22T01:55:23;6.75;;;2.80;;
20229;SDS011;12195;55.790;37.572;2023-06-22T01:57:55;11.55;;;3.22;;
20229;SDS011;12195;55.790;37.572;2023-06-22T02:00:38;9.93;;;3.05;;
20229;SDS011;12195;55.790;37.572;2023-06-22T02:03:14;6.47;;;3.10;;
20229;SDS011;12195;55.790;37.572;2023-06-22T02:06:02;8.27;;;3.50;;
20229;SDS011;12195;55.790;37.572;2023-06-22T02:08:48;8.83;;;2.95;;
20229;SDS011;12195;55.790;37.572;2023-06-22T02:11:37;9.18;;;3.20;;
20229;SDS011;12195;55.790;37.572;2023-06-22T02:14:23;8.30;;;2.90;;
20229;SDS011;12195;55.790;37.572;2023-06-22T02:16:57;7.35;;;2.77;;
20229;SDS011;12195;55.790;37.572;2023-06-22T02:19:43;8.70;;;3.10;;
20229;SDS011;12195;55.790;37.572;2023-06-22T02:22:16;13.55;;;3.55;;
20229;SDS011;12195;55.790;37.572;2023-06-22T02:25:01;7.25;;;3.45;;
20229;SDS011;12195;55.790;37.572;2023-06-22T02:27:44;6.55;;;3.02;;
20229;SDS011;12195;55.790;37.572;2023-06-22T02:30:29;7.33;;;2.87;;
20229;SDS011;12195;55.790;37.572;2023-06-22T02:33:01;9.80;;;3.20;;
20229;SDS011;12195;55.790;37.572;2023-06-22T02:35:45;5.90;;;2.80;;
20229;SDS011;12195;55.790;37.572;2023-06-22T02:38:19;7.83;;;2.52;;
20229;SDS011;12195;55.790;37.572;2023-06-22T02:41:05;7.62;;;3.58;;
20229;SDS011;12195;55.790;37.572;2023-06-22T02:43:49;12.03;;;3.60;;
20229;SDS011;12195;55.790;37.572;2023-06-22T02:46:32;8.55;;;3.00;;
20229;SDS011;12195;55.790;37.572;2023-06-22T02:49:05;9.53;;;3.42;;
20229;SDS011;12195;55.790;37.572;2023-06-22T02:51:48;8.93;;;3.62;;
20229;SDS011;12195;55.790;37.572;2023-06-22T02:54:22;9.88;;;3.30;;
20229;SDS011;12195;55.790;37.572;2023-06-22T02:56:55;9.43;;;3.50;;
20229;SDS011;12195;55.790;37.572;2023-06-22T02:59:38;7.58;;;3.08;;
20229;SDS011;12195;55.790;37.572;2023-06-22T03:02:14;9.15;;;3.40;;
20229;SDS011;12195;55.790;37.572;2023-06-22T03:04:56;9.18;;;4.00;;
20229;SDS011;12195;55.790;37.572;2023-06-22T03:07:31;8.73;;;3.72;;
20229;SDS011;12195;55.790;37.572;2023-06-22T03:10:16;9.90;;;4.10;;
20229;SDS011;12195;55.790;37.572;2023-06-22T03:13:00;14.70;;;3.72;;
20229;SDS011;12195;55.790;37.572;2023-06-22T03:15:45;14.80;;;4.40;;
20229;SDS011;12195;55.790;37.572;2023-06-22T03:18:18;9.20;;;3.75;;
20229;SDS011;12195;55.790;37.572;2023-06-22T03:21:02;7.85;;;3.72;;
20229;SDS011;12195;55.790;37.572;2023-06-22T03:23:35;8.98;;;3.98;;
20229;SDS011;12195;55.790;37.572;2023-06-22T03:26:20;7.55;;;3.42;;
20229;SDS011;12195;55.790;37.572;2023-06-22T03:28:54;8.50;;;3.52;;
20229;SDS011;12195;55.790;37.572;2023-06-22T03:31:38;8.78;;;3.60;;
20229;SDS011;12195;55.790;37.572;2023-06-22T03:34:11;8.90;;;3.67;;
20229;SDS011;12195;55.790;37.572;2023-06-22T03:36:54;10.58;;;3.55;;
20229;SDS011;12195;55.790;37.572;2023-06-22T03:39:36;7.50;;;3.33;;
20229;SDS011;12195;55.790;37.572;2023-06-22T03:42:20;6.58;;;3.80;;
20229;SDS011;12195;55.790;37.572;2023-06-22T03:44:53;11.65;;;3.33;;
20229;SDS011;12195;55.790;37.572;2023-06-22T03:47:35;10.98;;;3.20;;
20229;SDS011;12195;55.790;37.572;2023-06-22T03:50:08;13.98;;;3.70;;
20229;SDS011;12195;55.790;37.572;2023-06-22T03:52:51;12.70;;;3.95;;
20229;SDS011;12195;55.790;37.572;2023-06-22T03:55:34;6.15;;;2.90;;
20229;SDS011;12195;55.790;37.572;2023-06-22T03:58:17;11.93;;;4.10;;
20229;SDS011;12195;55.790;37.572;2023-06-22T04:00:52;9.60;;;2.80;;
20229;SDS011;12195;55.790;37.572;2023-06-22T04:03:34;6.53;;;2.72;;
20229;SDS011;12195;55.790;37.572;2023-06-22T04:06:07;14.15;;;3.15;;
20229;SDS011;12195;55.790;37.572;2023-06-22T04:08:50;8.95;;;3.08;;
20229;SDS011;12195;55.790;37.572;2023-06-22T04:11:24;8.70;;;3.10;;
20229;SDS011;12195;55.790;37.572;2023-06-22T04:14:08;12.45;;;3.00;;
20229;SDS011;12195;55.790;37.572;2023-06-22T04:16:51;3.98;;;2.65;;
20229;SDS011;12195;55.790;37.572;2023-06-22T04:19:24;5.17;;;3.10;;
20229;SDS011;12195;55.790;37.572;2023-06-22T04:22:07;9.48;;;3.17;;
20229;SDS011;12195;55.790;37.572;2023-06-22T04:24:51;4.33;;;2.55;;
20229;SDS011;12195;55.790;37.572;2023-06-22T04:27:24;10.78;;;2.50;;
20229;SDS011;12195;55.790;37.572;2023-06-22T04:30:07;7.47;;;2.95;;
20229;SDS011;12195;55.790;37.572;2023-06-22T04:32:44;8.33;;;2.92;;
20229;SDS011;12195;55.790;37.572;2023-06-22T04:35:31;5.10;;;2.70;;
20229;SDS011;12195;55.790;37.572;2023-06-22T04:38:04;11.97;;;3.37;;
20229;SDS011;12195;55.790;37.572;2023-06-22T04:40:47;7.53;;;2.60;;
20229;SDS011;12195;55.790;37.572;2023-06-22T04:43:20;5.12;;;2.80;;
20229;SDS011;12195;55.790;37.572;2023-06-22T04:46:03;5.58;;;2.58;;
20229;SDS011;12195;55.790;37.572;2023-06-22T04:48:37;5.85;;;2.77;;
20229;SDS011;12195;55.790;37.572;2023-06-22T04:51:22;8.53;;;3.35;;
20229;SDS011;12195;55.790;37.572;2023-06-22T04:53:58;6.03;;;2.98;;
20229;SDS011;12195;55.790;37.572;2023-06-22T04:56:41;5.15;;;2.90;;
20229;SDS011;12195;55.790;37.572;2023-06-22T04:59:16;6.05;;;3.27;;
20229;SDS011;12195;55.790;37.572;2023-06-22T05:01:49;4.80;;;2.40;;
20229;SDS011;12195;55.790;37.572;2023-06-22T05:04:33;3.60;;;2.52;;
20229;SDS011;12195;55.790;37.572;2023-06-22T05:07:08;3.50;;;2.27;;
20229;SDS011;12195;55.790;37.572;2023-06-22T05:09:51;5.00;;;2.20;;
20229;SDS011;12195;55.790;37.572;2023-06-22T05:12:24;4.50;;;2.37;;
20229;SDS011;12195;55.790;37.572;2023-06-22T05:15:01;5.92;;;2.60;;
20229;SDS011;12195;55.790;37.572;2023-06-22T05:17:46;9.90;;;2.90;;
20229;SDS011;12195;55.790;37.572;2023-06-22T05:20:20;5.70;;;2.47;;
20229;SDS011;12195;55.790;37.572;2023-06-22T05:23:03;4.53;;;2.40;;
20229;SDS011;12195;55.790;37.572;2023-06-22T05:25:47;4.40;;;2.70;;
20229;SDS011;12195;55.790;37.572;2023-06-22T05:28:30;2.60;;;2.05;;
20229;SDS011;12195;55.790;37.572;2023-06-22T05:31:04;4.50;;;2.50;;
20229;SDS011;12195;55.790;37.572;2023-06-22T05:33:50;3.15;;;2.15;;
20229;SDS011;12195;55.790;37.572;2023-06-22T05:36:24;3.67;;;2.17;;
20229;SDS011;12195;55.790;37.572;2023-06-22T05:39:11;4.75;;;2.58;;
20229;SDS011;12195;55.790;37.572;2023-06-22T05:41:46;5.58;;;2.45;;
20229;SDS011;12195;55.790;37.572;2023-06-22T05:44:29;3.95;;;2.30;;
20229;SDS011;12195;55.790;37.572;2023-06-22T05:47:03;3.23;;;2.00;;
20229;SDS011;12195;55.790;37.572;2023-06-22T05:49:36;4.85;;;2.40;;
20229;SDS011;12195;55.790;37.572;2023-06-22T05:52:21;4.90;;;2.75;;
20229;SDS011;12195;55.790;37.572;2023-06-22T05:54:54;7.05;;;3.30;;
20229;SDS011;12195;55.790;37.572;2023-06-22T05:57:40;6.60;;;2.33;;
20229;SDS011;12195;55.790;37.572;2023-06-22T06:00:23;5.53;;;2.70;;
20229;SDS011;12195;55.790;37.572;2023-06-22T06:03:08;3.98;;;2.42;;
20229;SDS011;12195;55.790;37.572;2023-06-22T06:05:44;3.40;;;2.30;;
20229;SDS011;12195;55.790;37.572;2023-06-22T06:08:30;5.03;;;2.92;;
20229;SDS011;12195;55.790;37.572;2023-06-22T06:11:03;4.67;;;2.50;;
20229;SDS011;12195;55.790;37.572;2023-06-22T06:13:47;4.25;;;2.65;;
20229;SDS011;12195;55.790;37.572;2023-06-22T06:16:32;7.83;;;2.70;;
20229;SDS011;12195;55.790;37.572;2023-06-22T06:19:06;5.92;;;2.95;;
20229;SDS011;12195;55.790;37.572;2023-06-22T06:21:49;8.90;;;2.70;;
20229;SDS011;12195;55.790;37.572;2023-06-22T06:24:32;5.45;;;2.50;;
20229;SDS011;12195;55.790;37.572;2023-06-22T06:27:17;7.78;;;3.05;;
20229;SDS011;12195;55.790;37.572;2023-06-22T06:29:49;6.72;;;3.22;;
20229;SDS011;12195;55.790;37.572;2023-06-22T06:32:34;4.97;;;2.60;;
20229;SDS011;12195;55.790;37.572;2023-06-22T06:35:09;3.72;;;2.40;;
20229;SDS011;12195;55.790;37.572;2023-06-22T06:37:53;6.33;;;2.60;;
20229;SDS011;12195;55.790;37.572;2023-06-22T06:40:26;2.20;;;2.00;;
20229;SDS011;12195;55.790;37.572;2023-06-22T06:43:11;4.72;;;2.10;;
20229;SDS011;12195;55.790;37.572;2023-06-22T06:45:44;5.25;;;2.33;;
20229;SDS011;12195;55.790;37.572;2023-06-22T06:48:28;4.45;;;2.45;;
20229;SDS011;12195;55.790;37.572;2023-06-22T06:51:01;5.75;;;2.72;;
20229;SDS011;12195;55.790;37.572;2023-06-22T06:53:45;4.55;;;2.37;;
20229;SDS011;12195;55.790;37.572;2023-06-22T06:56:17;5.67;;;2.45;;
20229;SDS011;12195;55.790;37.572;2023-06-22T06:59:00;4.72;;;2.90;;
20229;SDS011;12195;55.790;37.572;2023-06-22T07:01:33;3.08;;;2.30;;
20229;SDS011;12195;55.790;37.572;2023-06-22T07:04:18;3.42;;;2.40;;
20229;SDS011;12195;55.790;37.572;2023-06-22T07:06:52;2.87;;;1.93;;
20229;SDS011;12195;55.790;37.572;2023-06-22T07:09:35;3.85;;;2.10;;
20229;SDS011;12195;55.790;37.572;2023-06-22T07:12:18;5.95;;;2.72;;
20229;SDS011;12195;55.790;37.572;2023-06-22T07:14:53;3.00;;;2.12;;
20229;SDS011;12195;55.790;37.572;2023-06-22T07:17:36;6.35;;;2.55;;
20229;SDS011;12195;55.790;37.572;2023-06-22T07:22:54;4.55;;;2.50;;
20229;SDS011;12195;55.790;37.572;2023-06-22T07:25:27;5.70;;;2.20;;
20229;SDS011;12195;55.790;37.572;2023-06-22T07:28:12;3.92;;;2.40;;
20229;SDS011;12195;55.790;37.572;2023-06-22T07:30:56;3.50;;;2.20;;
20229;SDS011;12195;55.790;37.572;2023-06-22T07:33:30;6.07;;;3.07;;
20229;SDS011;12195;55.790;37.572;2023-06-22T07:36:02;7.25;;;2.50;;
20229;SDS011;12195;55.790;37.572;2023-06-22T07:38:37;3.45;;;2.17;;
20229;SDS011;12195;55.790;37.572;2023-06-22T07:41:19;6.90;;;2.20;;
20229;SDS011;12195;55.790;37.572;2023-06-22T07:44:03;4.45;;;2.65;;
20229;SDS011;12195;55.790;37.572;2023-06-22T07:46:37;7.47;;;3.02;;
20229;SDS011;12195;55.790;37.572;2023-06-22T07:49:21;6.30;;;2.60;;
20229;SDS011;12195;55.790;37.572;2023-06-22T07:51:55;3.42;;;2.15;;
20229;SDS011;12195;55.790;37.572;2023-06-22T07:54:41;4.10;;;2.55;;
20229;SDS011;12195;55.790;37.572;2023-06-22T07:57:24;6.45;;;2.87;;
20229;SDS011;12195;55.790;37.572;2023-06-22T08:00:06;4.85;;;2.83;;
20229;SDS011;12195;55.790;37.572;2023-06-22T08:02:59;4.12;;;2.70;;
20229;SDS011;12195;55.790;37.572;2023-06-22T08:05:34;4.08;;;2.35;;
20229;SDS011;12195;55.790;37.572;2023-06-22T08:08:18;3.83;;;2.20;;
20229;SDS011;12195;55.790;37.572;2023-06-22T08:10:51;3.30;;;2.22;;
20229;SDS011;12195;55.790;37.572;2023-06-22T08:13:34;2.55;;;2.10;;
20229;SDS011;12195;55.790;37.572;2023-06-22T08:16:07;4.50;;;2.67;;
20229;SDS011;12195;55.790;37.572;2023-06-22T08:18:49;4.50;;;2.33;;
20229;SDS011;12195;55.790;37.572;2023-06-22T08:21:24;3.08;;;2.40;;
20229;SDS011;12195;55.790;37.572;2023-06-22T08:24:06;3.30;;;2.02;;
20229;SDS011;12195;55.790;37.572;2023-06-22T08:26:39;5.78;;;2.15;;
20229;SDS011;12195;55.790;37.572;2023-06-22T08:29:26;4.28;;;2.30;;
20229;SDS011;12195;55.790;37.572;2023-06-22T08:31:59;3.60;;;2.27;;
20229;SDS011;12195;55.790;37.572;2023-06-22T08:34:44;7.78;;;2.75;;
20229;SDS011;12195;55.790;37.572;2023-06-22T08:37:17;4.65;;;2.47;;
20229;SDS011;12195;55.790;37.572;2023-06-22T08:40:02;7.22;;;2.70;;
20229;SDS011;12195;55.790;37.572;2023-06-22T08:42:51;5.17;;;2.52;;
20229;SDS011;12195;55.790;37.572;2023-06-22T08:45:24;6.05;;;2.20;;
20229;SDS011;12195;55.790;37.572;2023-06-22T08:48:08;3.25;;;2.25;;
20229;SDS011;12195;55.790;37.572;2023-06-22T08:50:42;10.60;;;3.43;;
20229;SDS011;12195;55.790;37.572;2023-06-22T08:53:25;6.67;;;2.62;;
20229;SDS011;12195;55.790;37.572;2023-06-22T08:56:09;3.87;;;2.50;;
20229;SDS011;12195;55.790;37.572;2023-06-22T08:58:44;4.87;;;2.37;;
20229;SDS011;12195;55.790;37.572;2023-06-22T09:01:18;2.90;;;2.37;;
20229;SDS011;12195;55.790;37.572;2023-06-22T09:03:50;5.62;;;2.20;;
20229;SDS011;12195;55.790;37.572;2023-06-22T09:06:40;5.90;;;3.00;;
20229;SDS011;12195;55.790;37.572;2023-06-22T09:09:26;6.85;;;3.40;;
20229;SDS011;12195;55.790;37.572;2023-06-22T09:12:00;7.17;;;3.10;;
20229;SDS011;12195;55.790;37.572;2023-06-22T09:14:44;5.08;;;2.60;;
20229;SDS011;12195;55.790;37.572;2023-06-22T09:17:17;4.03;;;2.70;;
20229;SDS011;12195;55.790;37.572;2023-06-22T09:20:00;3.67;;;2.67;;
20229;SDS011;12195;55.790;37.572;2023-06-22T09:22:38;4.87;;;2.40;;
20229;SDS011;12195;55.790;37.572;2023-06-22T09:25:20;11.57;;;3.67;;
20229;SDS011;12195;55.790;37.572;2023-06-22T09:27:54;14.53;;;3.05;;
20229;SDS011;12195;55.790;37.572;2023-06-22T09:30:37;5.10;;;2.67;;
20229;SDS011;12195;55.790;37.572;2023-06-22T09:33:09;3.70;;;2.27;;
20229;SDS011;12195;55.790;37.572;2023-06-22T09:35:54;6.60;;;2.10;;
20229;SDS011;12195;55.790;37.572;2023-06-22T09:38:27;6.90;;;2.72;;
20229;SDS011;12195;55.790;37.572;2023-06-22T09:41:09;4.15;;;2.80;;
20229;SDS011;12195;55.790;37.572;2023-06-22T09:43:52;7.25;;;2.50;;
20229;SDS011;12195;55.790;37.572;2023-06-22T09:46:27;2.72;;;1.98;;
20229;SDS011;12195;55.790;37.572;2023-06-22T09:49:09;3.27;;;2.55;;
20229;SDS011;12195;55.790;37.572;2023-06-22T09:51:43;5.72;;;2.60;;
20229;SDS011;12195;55.790;37.572;2023-06-22T09:54:25;7.12;;;2.87;;
20229;SDS011;12195;55.790;37.572;2023-06-22T09:56:58;8.88;;;4.72;;
20229;SDS011;12195;55.790;37.572;2023-06-22T09:59:42;5.85;;;2.35;;
20229;SDS011;12195;55.790;37.572;2023-06-22T10:02:26;4.50;;;2.30;;
20229;SDS011;12195;55.790;37.572;2023-06-22T10:05:01;6.35;;;2.80;;
20229;SDS011;12195;55.790;37.572;2023-06-22T10:07:44;4.83;;;2.55;;
20229;SDS011;12195;55.790;37.572;2023-06-22T10:10:18;5.53;;;3.20;;
20229;SDS011;12195;55.790;37.572;2023-06-22T10:13:04;6.67;;;2.40;;
20229;SDS011;12195;55.790;37.572;2023-06-22T10:15:45;3.77;;;2.60;;
20229;SDS011;12195;55.790;37.572;2023-06-22T10:18:34;4.62;;;2.60;;
20229;SDS011;12195;55.790;37.572;2023-06-22T10:21:07;5.05;;;2.80;;
20229;SDS011;12195;55.790;37.572;2023-06-22T10:23:50;6.35;;;2.40;;
20229;SDS011;12195;55.790;37.572;2023-06-22T10:26:25;3.17;;;2.55;;
20229;SDS011;12195;55.790;37.572;2023-06-22T10:29:11;5.03;;;2.60;;
20229;SDS011;12195;55.790;37.572;2023-06-22T10:31:46;3.87;;;2.52;;
20229;SDS011;12195;55.790;37.572;2023-06-22T10:34:31;4.92;;;2.87;;
20229;SDS011;12195;55.790;37.572;2023-06-22T10:37:05;5.97;;;3.00;;
20229;SDS011;12195;55.790;37.572;2023-06-22T10:39:51;6.17;;;2.70;;
20229;SDS011;12195;55.790;37.572;2023-06-22T10:42:41;6.40;;;2.95;;
20229;SDS011;12195;55.790;37.572;2023-06-22T10:45:14;9.10;;;2.70;;
20229;SDS011;12195;55.790;37.572;2023-06-22T10:47:57;4.45;;;2.90;;
20229;SDS011;12195;55.790;37.572;2023-06-22T10:53:18;3.92;;;2.45;;
20229;SDS011;12195;55.790;37.572;2023-06-22T10:55:51;4.87;;;3.30;;
20229;SDS011;12195;55.790;37.572;2023-06-22T10:58:37;4.10;;;2.65;;
20229;SDS011;12195;55.790;37.572;2023-06-22T11:01:10;2.90;;;2.60;;
20229;SDS011;12195;55.790;37.572;2023-06-22T11:03:57;5.47;;;2.90;;
20229;SDS011;12195;55.790;37.572;2023-06-22T11:06:31;6.55;;;2.65;;
20229;SDS011;12195;55.790;37.572;2023-06-22T11:09:16;3.55;;;2.70;;
20229;SDS011;12195;55.790;37.572;2023-06-22T11:11:53;4.20;;;2.72;;
20229;SDS011;12195;55.790;37.572;2023-06-22T11:14:38;3.37;;;2.77;;
20229;SDS011;12195;55.790;37.572;2023-06-22T11:17:21;9.40;;;2.70;;
20229;SDS011;12195;55.790;37.572;2023-06-22T11:19:54;4.55;;;2.77;;
20229;SDS011;12195;55.790;37.572;2023-06-22T11:22:38;2.60;;;2.40;;
20229;SDS011;12195;55.790;37.572;2023-06-22T11:25:11;6.78;;;3.05;;
20229;SDS011;12195;55.790;37.572;2023-06-22T11:27:58;6.45;;;2.50;;
20229;SDS011;12195;55.790;37.572;2023-06-22T11:30:43;4.75;;;2.60;;
20229;SDS011;12195;55.790;37.572;2023-06-22T11:33:15;3.20;;;2.30;;
20229;SDS011;12195;55.790;37.572;2023-06-22T11:35:59;4.87;;;3.40;;
20229;SDS011;12195;55.790;37.572;2023-06-22T11:38:32;5.97;;;2.40;;
20229;SDS011;12195;55.790;37.572;2023-06-22T11:41:17;2.30;;;2.10;;
20229;SDS011;12195;55.790;37.572;2023-06-22T11:43:50;6.12;;;2.95;;
20229;SDS011;12195;55.790;37.572;2023-06-22T11:46:34;5.22;;;2.40;;
20229;SDS011;12195;55.790;37.572;2023-06-22T11:49:10;4.92;;;3.10;;
20229;SDS011;12195;55.790;37.572;2023-06-22T11:51:56;2.92;;;2.52;;
20229;SDS011;12195;55.790;37.572;2023-06-22T11:54:33;2.47;;;2.10;;
20229;SDS011;12195;55.790;37.572;2023-06-22T11:57:05;2.87;;;2.08;;
20229;SDS011;12195;55.790;37.572;2023-06-22T11:59:49;4.65;;;2.52;;
20229;SDS011;12195;55.790;37.572;2023-06-22T12:02:22;5.78;;;2.25;;
20229;SDS011;12195;55.790;37.572;2023-06-22T12:05:09;3.55;;;2.33;;
20229;SDS011;12195;55.790;37.572;2023-06-22T12:07:43;3.27;;;2.20;;
20229;SDS011;12195;55.790;37.572;2023-06-22T12:10:26;3.42;;;2.08;;
20229;SDS011;12195;55.790;37.572;2023-06-22T12:13:00;2.90;;;1.95;;
20229;SDS011;12195;55.790;37.572;2023-06-22T12:15:47;4.55;;;2.35;;
20229;SDS011;12195;55.790;37.572;2023-06-22T12:20:53;2.85;;;2.20;;
20229;SDS011;12195;55.790;37.572;2023-06-22T12:23:39;3.00;;;2.10;;
20229;SDS011;12195;55.790;37.572;2023-06-22T12:26:13;7.42;;;2.77;;
20229;SDS011;12195;55.790;37.572;2023-06-22T12:28:56;3.15;;;2.20;;
20229;SDS011;12195;55.790;37.572;2023-06-22T12:31:30;4.28;;;2.20;;
20229;SDS011;12195;55.790;37.572;2023-06-22T12:34:13;5.92;;;3.40;;
20229;SDS011;12195;55.790;37.572;2023-06-22T12:36:46;5.80;;;2.98;;
20229;SDS011;12195;55.790;37.572;2023-06-22T12:39:20;3.30;;;2.60;;
20229;SDS011;12195;55.790;37.572;2023-06-22T12:42:04;4.58;;;2.90;;
20229;SDS011;12195;55.790;37.572;2023-06-22T12:44:40;10.90;;;3.20;;
20229;SDS011;12195;55.790;37.572;2023-06-22T12:47:22;4.17;;;2.47;;
20229;SDS011;12195;55.790;37.572;2023-06-22T12:49:57;9.28;;;2.80;;
20229;SDS011;12195;55.790;37.572;2023-06-22T12:52:42;5.37;;;3.08;;
20229;SDS011;12195;55.790;37.572;2023-06-22T12:55:16;7.28;;;2.52;;
20229;SDS011;12195;55.790;37.572;2023-06-22T13:00:21;5.03;;;3.17;;
20229;SDS011;12195;55.790;37.572;2023-06-22T13:03:07;3.62;;;2.47;;
20229;SDS011;12195;55.790;37.572;2023-06-22T13:05:42;3.27;;;2.17;;
20229;SDS011;12195;55.790;37.572;2023-06-22T13:08:25;6.12;;;2.80;;
20229;SDS011;12195;55.790;37.572;2023-06-22T13:11:00;4.20;;;2.20;;
20229;SDS011;12195;55.790;37.572;2023-06-22T13:13:32;5.78;;;2.72;;
20229;SDS011;12195;55.790;37.572;2023-06-22T13:16:15;4.10;;;1.92;;
20229;SDS011;12195;55.790;37.572;2023-06-22T13:18:57;3.83;;;2.20;;
20229;SDS011;12195;55.790;37.572;2023-06-22T13:21:30;3.60;;;2.35;;
20229;SDS011;12195;55.790;37.572;2023-06-22T13:24:14;3.67;;;2.40;;
20229;SDS011;12195;55.790;37.572;2023-06-22T13:26:47;4.78;;;2.25;;
20229;SDS011;12195;55.790;37.572;2023-06-22T13:29:29;3.60;;;2.20;;
20229;SDS011;12195;55.790;37.572;2023-06-22T13:32:03;5.75;;;3.30;;
20229;SDS011;12195;55.790;37.572;2023-06-22T13:34:49;5.28;;;2.95;;
20229;SDS011;12195;55.790;37.572;2023-06-22T13:37:34;5.00;;;2.30;;
20229;SDS011;12195;55.790;37.572;2023-06-22T13:40:07;4.60;;;2.15;;
20229;SDS011;12195;55.790;37.572;2023-06-22T13:42:51;5.20;;;2.50;;
20229;SDS011;12195;55.790;37.572;2023-06-22T13:45:26;2.37;;;2.00;;
20229;SDS011;12195;55.790;37.572;2023-06-22T13:48:09;3.72;;;2.62;;
20229;SDS011;12195;55.790;37.572;2023-06-22T13:50:41;5.85;;;2.83;;
20229;SDS011;12195;55.790;37.572;2023-06-22T13:53:14;3.50;;;2.20;;
20229;SDS011;12195;55.790;37.572;2023-06-22T13:55:57;3.15;;;1.77;;
20229;SDS011;12195;55.790;37.572;2023-06-22T13:58:31;5.35;;;2.50;;
20229;SDS011;12195;55.790;37.572;2023-06-22T14:01:13;3.80;;;2.87;;
20229;SDS011;12195;55.790;37.572;2023-06-22T14:03:48;4.83;;;1.98;;
20229;SDS011;12195;55.790;37.572;2023-06-22T14:06:22;8.63;;;4.20;;
20229;SDS011;12195;55.790;37.572;2023-06-22T14:08:55;4.92;;;2.30;;
20229;SDS011;12195;55.790;37.572;2023-06-22T14:11:40;6.47;;;2.60;;
20229;SDS011;12195;55.790;37.572;2023-06-22T14:14:22;7.90;;;2.95;;
20229;SDS011;12195;55.790;37.572;2023-06-22T14:16:56;6.47;;;2.27;;
20229;SDS011;12195;55.790;37.572;2023-06-22T14:19:39;4.80;;;2.30;;
20229;SDS011;12195;55.790;37.572;2023-06-22T14:22:12;4.75;;;2.83;;
20229;SDS011;12195;55.790;37.572;2023-06-22T14:24:55;8.50;;;2.95;;
20229;SDS011;12195;55.790;37.572;2023-06-22T14:27:31;7.47;;;2.67;;
20229;SDS011;12195;55.790;37.572;2023-06-22T14:30:14;4.50;;;2.40;;
20229;SDS011;12195;55.790;37.572;2023-06-22T14:32:47;6.35;;;2.60;;
20229;SDS011;12195;55.790;37.572;2023-06-22T14:35:32;3.77;;;2.35;;
20229;SDS011;12195;55.790;37.572;2023-06-22T14:38:07;2.83;;;1.98;;
20229;SDS011;12195;55.790;37.572;2023-06-22T14:40:51;5.47;;;2.60;;
20229;SDS011;12195;55.790;37.572;2023-06-22T14:43:26;4.70;;;2.60;;
20229;SDS011;12195;55.790;37.572;2023-06-22T14:46:11;7.50;;;3.10;;
20229;SDS011;12195;55.790;37.572;2023-06-22T14:48:46;5.40;;;2.83;;
20229;SDS011;12195;55.790;37.572;2023-06-22T14:51:19;4.80;;;2.50;;
20229;SDS011;12195;55.790;37.572;2023-06-22T14:53:52;6.00;;;2.70;;
20229;SDS011;12195;55.790;37.572;2023-06-22T14:56:34;7.78;;;3.15;;
20229;SDS011;12195;55.790;37.572;2023-06-22T14:59:09;4.90;;;2.60;;
20229;SDS011;12195;55.790;37.572;2023-06-22T15:01:51;3.72;;;2.85;;
20229;SDS011;12195;55.790;37.572;2023-06-22T15:04:34;6.47;;;2.98;;
20229;SDS011;12195;55.790;37.572;2023-06-22T15:07:08;3.17;;;2.60;;
20229;SDS011;12195;55.790;37.572;2023-06-22T15:09:51;4.58;;;2.60;;
20229;SDS011;12195;55.790;37.572;2023-06-22T15:12:36;7.20;;;3.27;;
20229;SDS011;12195;55.790;37.572;2023-06-22T15:15:20;6.85;;;3.52;;
20229;SDS011;12195;55.790;37.572;2023-06-22T15:17:52;5.25;;;3.37;;
20229;SDS011;12195;55.790;37.572;2023-06-22T15:20:36;10.95;;;3.08;;
20229;SDS011;12195;55.790;37.572;2023-06-22T15:23:09;23.85;;;5.05;;
20229;SDS011;12195;55.790;37.572;2023-06-22T15:25:42;3.37;;;3.02;;
20229;SDS011;12195;55.790;37.572;2023-06-22T15:28:25;6.03;;;3.08;;
20229;SDS011;12195;55.790;37.572;2023-06-22T15:30:58;4.20;;;3.15;;
20229;SDS011;12195;55.790;37.572;2023-06-22T15:33:41;4.25;;;3.12;;
20229;SDS011;12195;55.790;37.572;2023-06-22T15:36:19;8.53;;;5.05;;
20229;SDS011;12195;55.790;37.572;2023-06-22T15:39:02;6.15;;;3.10;;
20229;SDS011;12195;55.790;37.572;2023-06-22T15:41:36;7.03;;;3.33;;
20229;SDS011;12195;55.790;37.572;2023-06-22T15:44:22;8.00;;;3.67;;
20229;SDS011;12195;55.790;37.572;2023-06-22T15:47:07;10.63;;;4.67;;
20229;SDS011;12195;55.790;37.572;2023-06-22T15:49:41;4.00;;;2.67;;
20229;SDS011;12195;55.790;37.572;2023-06-22T15:52:26;2.95;;;2.30;;
20229;SDS011;12195;55.790;37.572;2023-06-22T15:54:59;8.13;;;3.12;;
20229;SDS011;12195;55.790;37.572;2023-06-22T15:57:44;3.80;;;2.95;;
20229;SDS011;12195;55.790;37.572;2023-06-22T16:00:18;5.92;;;3.30;;